sensor_id;sensor_type;location;lat;lon;timestamp;pressure;altitude;pressure_sealevel;temperature;humidity
7906;BME280;13291;40.472;-3.878;2023-05-13T00:01:56;53118.00;;;-139.96;37.66
7906;BME280;13291;40.472;-3.878;2023-05-13T00:04:23;53132.00;;;-139.96;37.70
7906;BME280;13291;40.472;-3.878;2023-05-13T00:06:50;53184.03;;;-139.96;37.86
7906;BME280;13291;40.472;-3.878;2023-05-13T00:09:17;53136.00;;;-139.96;38.00
7906;BME280;13291;40.472;-3.878;2023-05-13T00:11:45;53136.00;;;-139.96;37.91
7906;BME280;13291;40.472;-3.878;2023-05-13T00:14:12;53136.00;;;-139.96;37.87
7906;BME280;13291;40.472;-3.878;2023-05-13T00:16:39;53142.00;;;-139.96;37.87
7906;BME280;13291;40.472;-3.878;2023-05-13T00:19:07;53156.03;;;-139.96;38.21
7906;BME280;13291;40.472;-3.878;2023-05-13T00:21:34;53118.00;;;-139.96;38.02
7906;BME280;13291;40.472;-3.878;2023-05-13T00:24:01;53146.00;;;-139.96;38.16
7906;BME280;13291;40.472;-3.878;2023-05-13T00:26:28;53130.00;;;-139.96;38.00
7906;BME280;13291;40.472;-3.878;2023-05-13T00:28:57;53130.00;;;-139.96;37.88
7906;BME280;13291;40.472;-3.878;2023-05-13T00:31:23;53166.03;;;-139.96;38.09
7906;BME280;13291;40.472;-3.878;2023-05-13T00:33:50;53146.00;;;-139.96;38.12
7906;BME280;13291;40.472;-3.878;2023-05-13T00:36:17;53158.03;;;-139.96;37.97
7906;BME280;13291;40.472;-3.878;2023-05-13T00:38:44;53138.00;;;-139.96;38.02
7906;BME280;13291;40.472;-3.878;2023-05-13T00:41:11;53150.00;;;-139.96;38.19
7906;BME280;13291;40.472;-3.878;2023-05-13T00:43:38;53168.03;;;-139.96;38.00
7906;BME280;13291;40.472;-3.878;2023-05-13T00:46:06;53140.00;;;-139.96;38.19
7906;BME280;13291;40.472;-3.878;2023-05-13T00:48:33;53146.00;;;-139.96;38.50
7906;BME280;13291;40.472;-3.878;2023-05-13T00:51:01;53140.00;;;-139.96;38.26
7906;BME280;13291;40.472;-3.878;2023-05-13T00:53:28;53110.00;;;-139.96;38.38
7906;BME280;13291;40.472;-3.878;2023-05-13T00:55:56;53160.03;;;-139.96;38.28
7906;BME280;13291;40.472;-3.878;2023-05-13T00:58:23;53142.00;;;-139.96;38.51
7906;BME280;13291;40.472;-3.878;2023-05-13T01:00:56;53124.00;;;-139.96;38.54
7906;BME280;13291;40.472;-3.878;2023-05-13T01:03:32;53114.00;;;-139.96;38.46
7906;BME280;13291;40.472;-3.878;2023-05-13T01:06:05;53110.00;;;-139.96;38.64
7906;BME280;13291;40.472;-3.878;2023-05-13T01:08:41;53130.00;;;-139.96;38.56
7906;BME280;13291;40.472;-3.878;2023-05-13T01:11:13;53174.03;;;-139.96;39.02
7906;BME280;13291;40.472;-3.878;2023-05-13T01:13:43;53182.03;;;-139.96;39.39
7906;BME280;13291;40.472;-3.878;2023-05-13T01:16:17;53146.00;;;-139.96;39.38
7906;BME280;13291;40.472;-3.878;2023-05-13T01:18:51;53142.00;;;-139.96;39.25
7906;BME280;13291;40.472;-3.878;2023-05-13T01:21:24;53142.00;;;-139.96;39.66
7906;BME280;13291;40.472;-3.878;2023-05-13T01:23:52;53162.03;;;-139.96;39.60
7906;BME280;13291;40.472;-3.878;2023-05-13T01:26:19;53142.00;;;-139.96;39.57
7906;BME280;13291;40.472;-3.878;2023-05-13T01:28:46;53166.03;;;-139.96;39.62
7906;BME280;13291;40.472;-3.878;2023-05-13T01:31:14;53146.00;;;-139.96;39.47
7906;BME280;13291;40.472;-3.878;2023-05-13T01:33:42;53162.03;;;-139.96;39.52
7906;BME280;13291;40.472;-3.878;2023-05-13T01:36:09;53142.00;;;-139.96;39.40
7906;BME280;13291;40.472;-3.878;2023-05-13T01:38:38;53174.03;;;-139.96;39.58
7906;BME280;13291;40.472;-3.878;2023-05-13T01:41:05;53150.00;;;-139.96;39.67
7906;BME280;13291;40.472;-3.878;2023-05-13T01:43:33;53122.00;;;-139.96;39.60
7906;BME280;13291;40.472;-3.878;2023-05-13T01:46:00;53156.03;;;-139.96;39.62
7906;BME280;13291;40.472;-3.878;2023-05-13T01:48:27;53140.00;;;-139.96;39.88
7906;BME280;13291;40.472;-3.878;2023-05-13T01:50:54;53184.03;;;-139.96;39.97
7906;BME280;13291;40.472;-3.878;2023-05-13T01:53:21;53182.03;;;-139.96;40.10
7906;BME280;13291;40.472;-3.878;2023-05-13T01:55:49;53178.03;;;-139.96;39.96
7906;BME280;13291;40.472;-3.878;2023-05-13T01:58:16;53182.03;;;-139.96;40.02
7906;BME280;13291;40.472;-3.878;2023-05-13T02:00:43;53152.00;;;-139.96;39.81
7906;BME280;13291;40.472;-3.878;2023-05-13T02:03:10;53170.03;;;-139.96;39.74
7906;BME280;13291;40.472;-3.878;2023-05-13T02:05:37;53142.00;;;-139.96;39.81
7906;BME280;13291;40.472;-3.878;2023-05-13T02:08:05;53144.00;;;-139.96;40.05
7906;BME280;13291;40.472;-3.878;2023-05-13T02:10:32;53152.00;;;-139.96;40.05
7906;BME280;13291;40.472;-3.878;2023-05-13T02:13:00;53162.03;;;-139.96;39.95
7906;BME280;13291;40.472;-3.878;2023-05-13T02:15:28;53170.03;;;-139.96;40.05
7906;BME280;13291;40.472;-3.878;2023-05-13T02:17:55;53162.03;;;-139.96;40.10
7906;BME280;13291;40.472;-3.878;2023-05-13T02:20:22;53128.00;;;-139.96;40.16
7906;BME280;13291;40.472;-3.878;2023-05-13T02:22:49;53162.03;;;-139.96;40.46
7906;BME280;13291;40.472;-3.878;2023-05-13T02:25:16;53158.03;;;-139.96;40.15
7906;BME280;13291;40.472;-3.878;2023-05-13T02:27:43;53156.03;;;-139.96;40.36
7906;BME280;13291;40.472;-3.878;2023-05-13T02:30:11;53138.00;;;-139.96;40.37
7906;BME280;13291;40.472;-3.878;2023-05-13T02:32:38;53152.00;;;-139.96;40.24
7906;BME280;13291;40.472;-3.878;2023-05-13T02:35:08;53130.00;;;-139.96;39.91
7906;BME280;13291;40.472;-3.878;2023-05-13T02:37:35;53158.03;;;-139.96;40.05
7906;BME280;13291;40.472;-3.878;2023-05-13T02:40:02;53154.00;;;-139.96;40.53
7906;BME280;13291;40.472;-3.878;2023-05-13T02:42:29;53130.00;;;-139.96;40.41
7906;BME280;13291;40.472;-3.878;2023-05-13T02:44:56;53146.00;;;-139.96;40.25
7906;BME280;13291;40.472;-3.878;2023-05-13T02:47:25;53174.03;;;-139.96;40.07
7906;BME280;13291;40.472;-3.878;2023-05-13T02:49:54;53146.00;;;-139.96;40.23
7906;BME280;13291;40.472;-3.878;2023-05-13T02:52:21;53170.03;;;-139.96;40.41
7906;BME280;13291;40.472;-3.878;2023-05-13T02:54:48;53174.03;;;-139.96;40.26
7906;BME280;13291;40.472;-3.878;2023-05-13T02:57:15;53182.03;;;-139.96;40.32
7906;BME280;13291;40.472;-3.878;2023-05-13T02:59:42;53168.03;;;-139.96;40.31
7906;BME280;13291;40.472;-3.878;2023-05-13T03:02:09;53158.03;;;-139.96;40.46
7906;BME280;13291;40.472;-3.878;2023-05-13T03:04:37;53178.03;;;-139.96;40.74
7906;BME280;13291;40.472;-3.878;2023-05-13T03:07:05;53184.03;;;-139.96;40.44
7906;BME280;13291;40.472;-3.878;2023-05-13T03:09:32;53172.03;;;-139.96;40.57
7906;BME280;13291;40.472;-3.878;2023-05-13T03:11:59;53202.03;;;-139.96;40.78
7906;BME280;13291;40.472;-3.878;2023-05-13T03:14:26;53198.03;;;-139.96;41.83
7906;BME280;13291;40.472;-3.878;2023-05-13T03:16:53;53150.00;;;-139.96;41.91
7906;BME280;13291;40.472;-3.878;2023-05-13T03:19:20;53154.00;;;-139.96;42.27
7906;BME280;13291;40.472;-3.878;2023-05-13T03:21:48;53170.03;;;-139.96;42.03
7906;BME280;13291;40.472;-3.878;2023-05-13T03:24:15;53158.03;;;-139.96;41.83
7906;BME280;13291;40.472;-3.878;2023-05-13T03:26:42;53156.03;;;-139.96;41.78
7906;BME280;13291;40.472;-3.878;2023-05-13T03:29:09;53172.03;;;-139.96;41.84
7906;BME280;13291;40.472;-3.878;2023-05-13T03:31:36;53164.03;;;-139.96;41.91
7906;BME280;13291;40.472;-3.878;2023-05-13T03:34:03;53146.00;;;-139.96;42.40
7906;BME280;13291;40.472;-3.878;2023-05-13T03:36:31;53160.03;;;-139.96;42.79
7906;BME280;13291;40.472;-3.878;2023-05-13T03:38:59;53160.03;;;-139.96;42.25
7906;BME280;13291;40.472;-3.878;2023-05-13T03:41:26;53174.03;;;-139.96;41.69
7906;BME280;13291;40.472;-3.878;2023-05-13T03:43:53;53178.03;;;-139.96;41.24
7906;BME280;13291;40.472;-3.878;2023-05-13T03:46:20;53158.03;;;-139.96;41.02
7906;BME280;13291;40.472;-3.878;2023-05-13T03:48:47;53150.00;;;-139.96;40.94
7906;BME280;13291;40.472;-3.878;2023-05-13T03:51:15;53182.03;;;-139.96;40.07
7906;BME280;13291;40.472;-3.878;2023-05-13T03:53:42;53210.03;;;-139.96;40.58
7906;BME280;13291;40.472;-3.878;2023-05-13T03:56:10;53190.03;;;-139.96;40.79
7906;BME280;13291;40.472;-3.878;2023-05-13T03:58:37;53150.00;;;-139.96;40.91
7906;BME280;13291;40.472;-3.878;2023-05-13T04:01:05;53166.03;;;-139.96;40.72
7906;BME280;13291;40.472;-3.878;2023-05-13T04:03:32;53180.03;;;-139.96;40.79
7906;BME280;13291;40.472;-3.878;2023-05-13T04:05:59;53196.03;;;-139.96;41.00
7906;BME280;13291;40.472;-3.878;2023-05-13T04:08:26;53188.03;;;-139.96;40.60
7906;BME280;13291;40.472;-3.878;2023-05-13T04:10:53;53188.03;;;-139.96;40.65
7906;BME280;13291;40.472;-3.878;2023-05-13T04:13:22;53166.03;;;-139.96;41.12
7906;BME280;13291;40.472;-3.878;2023-05-13T04:15:49;53188.03;;;-139.96;41.29
7906;BME280;13291;40.472;-3.878;2023-05-13T04:18:18;53164.03;;;-139.96;41.55
7906;BME280;13291;40.472;-3.878;2023-05-13T04:20:45;53160.03;;;-139.96;40.74
7906;BME280;13291;40.472;-3.878;2023-05-13T04:23:12;53164.03;;;-139.96;41.16
7906;BME280;13291;40.472;-3.878;2023-05-13T04:25:40;53192.03;;;-139.96;41.58
7906;BME280;13291;40.472;-3.878;2023-05-13T04:28:07;53158.03;;;-139.96;41.73
7906;BME280;13291;40.472;-3.878;2023-05-13T04:30:35;53180.03;;;-139.96;42.15
7906;BME280;13291;40.472;-3.878;2023-05-13T04:33:03;53190.03;;;-139.96;42.15
7906;BME280;13291;40.472;-3.878;2023-05-13T04:35:30;53172.03;;;-139.96;41.80
7906;BME280;13291;40.472;-3.878;2023-05-13T04:37:57;53144.00;;;-139.96;41.81
7906;BME280;13291;40.472;-3.878;2023-05-13T04:40:24;53192.03;;;-139.96;41.57
7906;BME280;13291;40.472;-3.878;2023-05-13T04:42:51;53172.03;;;-139.96;41.64
7906;BME280;13291;40.472;-3.878;2023-05-13T04:45:19;53182.03;;;-139.96;41.74
7906;BME280;13291;40.472;-3.878;2023-05-13T04:47:47;53190.03;;;-139.96;41.88
7906;BME280;13291;40.472;-3.878;2023-05-13T04:50:14;53164.03;;;-139.96;42.02
7906;BME280;13291;40.472;-3.878;2023-05-13T04:52:41;53146.00;;;-139.96;41.97
7906;BME280;13291;40.472;-3.878;2023-05-13T04:55:10;53210.03;;;-139.96;42.55
7906;BME280;13291;40.472;-3.878;2023-05-13T04:57:37;53182.03;;;-139.96;42.39
7906;BME280;13291;40.472;-3.878;2023-05-13T05:00:05;53186.03;;;-139.96;42.49
7906;BME280;13291;40.472;-3.878;2023-05-13T05:02:32;53178.03;;;-139.96;42.69
7906;BME280;13291;40.472;-3.878;2023-05-13T05:05:01;53170.03;;;-139.96;42.51
7906;BME280;13291;40.472;-3.878;2023-05-13T05:07:28;53178.03;;;-139.96;43.07
7906;BME280;13291;40.472;-3.878;2023-05-13T05:09:55;53164.03;;;-139.96;42.79
7906;BME280;13291;40.472;-3.878;2023-05-13T05:12:22;53196.03;;;-139.96;42.49
7906;BME280;13291;40.472;-3.878;2023-05-13T05:14:49;53188.03;;;-139.96;42.59
7906;BME280;13291;40.472;-3.878;2023-05-13T05:17:15;53158.03;;;-139.96;42.43
7906;BME280;13291;40.472;-3.878;2023-05-13T05:19:42;53226.03;;;-139.96;42.38
7906;BME280;13291;40.472;-3.878;2023-05-13T05:22:11;53160.03;;;-139.96;42.51
7906;BME280;13291;40.472;-3.878;2023-05-13T05:24:37;53174.03;;;-139.96;42.68
7906;BME280;13291;40.472;-3.878;2023-05-13T05:27:04;53128.00;;;-139.96;42.59
7906;BME280;13291;40.472;-3.878;2023-05-13T05:29:31;53164.03;;;-139.96;43.22
7906;BME280;13291;40.472;-3.878;2023-05-13T05:31:58;53178.03;;;-139.96;42.90
7906;BME280;13291;40.472;-3.878;2023-05-13T05:34:25;53136.00;;;-139.96;43.17
7906;BME280;13291;40.472;-3.878;2023-05-13T05:36:52;53178.03;;;-139.96;42.29
7906;BME280;13291;40.472;-3.878;2023-05-13T05:39:21;53180.03;;;-139.96;42.07
7906;BME280;13291;40.472;-3.878;2023-05-13T05:41:48;53160.03;;;-139.96;41.74
7906;BME280;13291;40.472;-3.878;2023-05-13T05:44:15;53168.03;;;-139.96;41.98
7906;BME280;13291;40.472;-3.878;2023-05-13T05:46:42;53196.03;;;-139.96;41.98
7906;BME280;13291;40.472;-3.878;2023-05-13T05:49:09;53188.03;;;-139.96;41.88
7906;BME280;13291;40.472;-3.878;2023-05-13T05:51:36;53170.03;;;-139.96;42.08
7906;BME280;13291;40.472;-3.878;2023-05-13T05:54:03;53192.03;;;-139.96;42.32
7906;BME280;13291;40.472;-3.878;2023-05-13T05:56:31;53202.03;;;-139.96;42.30
7906;BME280;13291;40.472;-3.878;2023-05-13T05:58:58;53204.03;;;-139.96;41.96
7906;BME280;13291;40.472;-3.878;2023-05-13T06:01:26;53182.03;;;-139.96;42.05
7906;BME280;13291;40.472;-3.878;2023-05-13T06:03:57;53172.03;;;-139.96;42.20
7906;BME280;13291;40.472;-3.878;2023-05-13T06:06:24;53198.03;;;-139.96;41.67
7906;BME280;13291;40.472;-3.878;2023-05-13T06:08:51;53192.03;;;-139.96;41.49
7906;BME280;13291;40.472;-3.878;2023-05-13T06:11:18;53206.03;;;-139.96;41.69
7906;BME280;13291;40.472;-3.878;2023-05-13T06:13:46;53198.03;;;-139.96;41.66
7906;BME280;13291;40.472;-3.878;2023-05-13T06:16:13;53174.03;;;-139.96;41.76
7906;BME280;13291;40.472;-3.878;2023-05-13T06:18:40;53230.03;;;-139.96;41.72
7906;BME280;13291;40.472;-3.878;2023-05-13T06:21:07;53162.03;;;-139.96;41.69
7906;BME280;13291;40.472;-3.878;2023-05-13T06:23:34;53192.03;;;-139.96;41.42
7906;BME280;13291;40.472;-3.878;2023-05-13T06:26:02;53170.03;;;-139.96;41.03
7906;BME280;13291;40.472;-3.878;2023-05-13T06:28:29;53160.03;;;-139.96;41.08
7906;BME280;13291;40.472;-3.878;2023-05-13T06:30:57;53206.03;;;-139.96;41.11
7906;BME280;13291;40.472;-3.878;2023-05-13T06:33:24;53184.03;;;-139.96;40.60
7906;BME280;13291;40.472;-3.878;2023-05-13T06:35:51;53170.03;;;-139.96;40.41
7906;BME280;13291;40.472;-3.878;2023-05-13T06:38:18;53208.03;;;-139.96;40.24
7906;BME280;13291;40.472;-3.878;2023-05-13T06:40:45;53188.03;;;-139.96;39.81
7906;BME280;13291;40.472;-3.878;2023-05-13T06:43:12;53190.03;;;-139.96;40.02
7906;BME280;13291;40.472;-3.878;2023-05-13T06:45:41;53166.03;;;-139.96;39.76
7906;BME280;13291;40.472;-3.878;2023-05-13T06:48:09;53144.00;;;-139.96;39.74
7906;BME280;13291;40.472;-3.878;2023-05-13T06:50:36;53166.03;;;-139.96;39.49
7906;BME280;13291;40.472;-3.878;2023-05-13T06:53:02;53130.00;;;-139.96;39.52
7906;BME280;13291;40.472;-3.878;2023-05-13T06:55:29;53148.00;;;-139.96;40.03
7906;BME280;13291;40.472;-3.878;2023-05-13T06:57:56;53190.03;;;-139.96;39.80
7906;BME280;13291;40.472;-3.878;2023-05-13T07:00:23;53158.03;;;-139.96;39.58
7906;BME280;13291;40.472;-3.878;2023-05-13T07:02:50;53166.03;;;-139.96;39.39
7906;BME280;13291;40.472;-3.878;2023-05-13T07:05:19;53188.03;;;-139.96;39.18
7906;BME280;13291;40.472;-3.878;2023-05-13T07:07:45;53158.03;;;-139.96;39.66
7906;BME280;13291;40.472;-3.878;2023-05-13T07:10:12;53124.00;;;-139.96;39.35
7906;BME280;13291;40.472;-3.878;2023-05-13T07:12:39;53144.00;;;-139.96;39.00
7906;BME280;13291;40.472;-3.878;2023-05-13T07:15:07;53162.03;;;-139.96;38.54
7906;BME280;13291;40.472;-3.878;2023-05-13T07:17:34;53160.03;;;-139.96;38.94
7906;BME280;13291;40.472;-3.878;2023-05-13T07:20:01;53142.00;;;-139.96;38.89
7906;BME280;13291;40.472;-3.878;2023-05-13T07:22:29;53134.00;;;-139.96;39.16
7906;BME280;13291;40.472;-3.878;2023-05-13T07:24:56;53142.00;;;-139.96;39.88
7906;BME280;13291;40.472;-3.878;2023-05-13T07:27:23;53160.03;;;-139.96;39.07
7906;BME280;13291;40.472;-3.878;2023-05-13T07:29:50;53160.03;;;-139.96;39.20
7906;BME280;13291;40.472;-3.878;2023-05-13T07:32:17;53146.00;;;-139.96;38.47
7906;BME280;13291;40.472;-3.878;2023-05-13T07:34:44;53154.00;;;-139.96;38.22
7906;BME280;13291;40.472;-3.878;2023-05-13T07:37:11;53138.00;;;-139.96;38.47
7906;BME280;13291;40.472;-3.878;2023-05-13T07:39:39;53128.00;;;-139.96;38.42
7906;BME280;13291;40.472;-3.878;2023-05-13T07:42:06;53146.00;;;-139.96;37.90
7906;BME280;13291;40.472;-3.878;2023-05-13T07:44:33;53122.00;;;-139.96;38.03
7906;BME280;13291;40.472;-3.878;2023-05-13T07:47:00;53112.00;;;-139.96;38.09
7906;BME280;13291;40.472;-3.878;2023-05-13T07:49:27;53114.00;;;-139.96;38.20
7906;BME280;13291;40.472;-3.878;2023-05-13T07:51:54;53122.00;;;-139.96;38.30
7906;BME280;13291;40.472;-3.878;2023-05-13T07:54:21;53126.00;;;-139.96;37.85
7906;BME280;13291;40.472;-3.878;2023-05-13T07:56:49;53132.00;;;-139.96;38.61
7906;BME280;13291;40.472;-3.878;2023-05-13T07:59:17;53152.00;;;-139.96;38.23
7906;BME280;13291;40.472;-3.878;2023-05-13T08:01:44;53146.00;;;-139.96;38.75
7906;BME280;13291;40.472;-3.878;2023-05-13T08:04:11;53102.00;;;-139.96;38.21
7906;BME280;13291;40.472;-3.878;2023-05-13T08:06:38;53142.00;;;-139.96;38.23
7906;BME280;13291;40.472;-3.878;2023-05-13T08:09:05;53138.00;;;-139.96;38.86
7906;BME280;13291;40.472;-3.878;2023-05-13T08:11:34;53140.00;;;-139.96;38.14
7906;BME280;13291;40.472;-3.878;2023-05-13T08:14:04;53128.00;;;-139.96;37.94
7906;BME280;13291;40.472;-3.878;2023-05-13T08:16:33;53126.00;;;-139.96;37.96
7906;BME280;13291;40.472;-3.878;2023-05-13T08:19:00;53090.00;;;-139.96;38.21
7906;BME280;13291;40.472;-3.878;2023-05-13T08:21:27;53138.00;;;-139.96;38.05
7906;BME280;13291;40.472;-3.878;2023-05-13T08:23:54;53156.03;;;-139.96;38.36
7906;BME280;13291;40.472;-3.878;2023-05-13T08:26:21;53110.00;;;-139.96;38.32
7906;BME280;13291;40.472;-3.878;2023-05-13T08:28:48;53122.00;;;-139.96;38.07
7906;BME280;13291;40.472;-3.878;2023-05-13T08:31:16;53116.00;;;-139.96;37.17
7906;BME280;13291;40.472;-3.878;2023-05-13T08:33:43;53106.00;;;-139.96;37.25
7906;BME280;13291;40.472;-3.878;2023-05-13T08:36:11;53108.00;;;-139.96;37.47
7906;BME280;13291;40.472;-3.878;2023-05-13T08:38:38;53124.00;;;-139.96;37.95
7906;BME280;13291;40.472;-3.878;2023-05-13T08:41:08;53150.00;;;-139.96;37.59
7906;BME280;13291;40.472;-3.878;2023-05-13T08:43:37;53136.00;;;-139.96;37.63
7906;BME280;13291;40.472;-3.878;2023-05-13T08:46:07;53108.00;;;-139.96;37.57
7906;BME280;13291;40.472;-3.878;2023-05-13T08:48:37;53110.00;;;-139.96;37.23
7906;BME280;13291;40.472;-3.878;2023-05-13T08:51:05;53102.00;;;-139.96;37.09
7906;BME280;13291;40.472;-3.878;2023-05-13T08:53:33;53088.00;;;-139.96;36.63
7906;BME280;13291;40.472;-3.878;2023-05-13T08:56:01;53108.00;;;-139.96;36.93
7906;BME280;13291;40.472;-3.878;2023-05-13T08:58:28;53124.00;;;-139.96;37.18
7906;BME280;13291;40.472;-3.878;2023-05-13T09:00:55;53130.00;;;-139.96;36.64
7906;BME280;13291;40.472;-3.878;2023-05-13T09:03:23;53086.00;;;-139.96;35.89
7906;BME280;13291;40.472;-3.878;2023-05-13T09:05:54;53086.00;;;-139.96;36.58
7906;BME280;13291;40.472;-3.878;2023-05-13T09:08:21;53106.00;;;-139.96;36.13
7906;BME280;13291;40.472;-3.878;2023-05-13T09:10:48;53094.00;;;-139.96;36.74
7906;BME280;13291;40.472;-3.878;2023-05-13T09:13:16;53114.00;;;-139.96;36.36
7906;BME280;13291;40.472;-3.878;2023-05-13T09:15:43;53114.00;;;-139.96;36.39
7906;BME280;13291;40.472;-3.878;2023-05-13T09:18:11;53120.00;;;-139.96;36.96
7906;BME280;13291;40.472;-3.878;2023-05-13T09:20:38;53098.00;;;-139.96;36.66
7906;BME280;13291;40.472;-3.878;2023-05-13T09:23:07;53080.00;;;-139.96;36.37
7906;BME280;13291;40.472;-3.878;2023-05-13T09:25:36;53090.00;;;-139.96;35.77
7906;BME280;13291;40.472;-3.878;2023-05-13T09:28:04;53102.00;;;-139.96;36.40
7906;BME280;13291;40.472;-3.878;2023-05-13T09:30:33;53074.00;;;-139.96;35.58
7906;BME280;13291;40.472;-3.878;2023-05-13T09:33:06;53106.00;;;-139.96;35.73
7906;BME280;13291;40.472;-3.878;2023-05-13T09:35:36;53084.00;;;-139.96;35.38
7906;BME280;13291;40.472;-3.878;2023-05-13T09:38:13;53082.00;;;-139.96;35.00
7906;BME280;13291;40.472;-3.878;2023-05-13T09:40:41;53082.00;;;-139.96;37.25
7906;BME280;13291;40.472;-3.878;2023-05-13T09:43:15;53080.00;;;-139.96;37.35
7906;BME280;13291;40.472;-3.878;2023-05-13T09:45:42;53092.00;;;-139.96;35.95
7906;BME280;13291;40.472;-3.878;2023-05-13T09:48:09;53046.00;;;-139.96;35.44
7906;BME280;13291;40.472;-3.878;2023-05-13T09:50:45;53064.00;;;-139.96;35.07
7906;BME280;13291;40.472;-3.878;2023-05-13T09:53:15;53066.00;;;-139.96;35.34
7906;BME280;13291;40.472;-3.878;2023-05-13T09:55:44;53098.00;;;-139.96;35.66
7906;BME280;13291;40.472;-3.878;2023-05-13T09:58:12;53076.00;;;-139.96;34.88
7906;BME280;13291;40.472;-3.878;2023-05-13T10:00:39;53048.00;;;-139.96;35.32
7906;BME280;13291;40.472;-3.878;2023-05-13T10:03:07;53048.00;;;-139.96;34.72
7906;BME280;13291;40.472;-3.878;2023-05-13T10:05:34;53066.00;;;-139.96;34.69
7906;BME280;13291;40.472;-3.878;2023-05-13T10:08:02;53048.00;;;-139.96;34.53
7906;BME280;13291;40.472;-3.878;2023-05-13T10:10:31;53060.00;;;-139.96;34.54
7906;BME280;13291;40.472;-3.878;2023-05-13T10:13:04;53084.00;;;-139.96;34.75
7906;BME280;13291;40.472;-3.878;2023-05-13T10:15:31;53078.00;;;-139.96;34.38
7906;BME280;13291;40.472;-3.878;2023-05-13T10:17:58;53076.00;;;-139.96;35.05
7906;BME280;13291;40.472;-3.878;2023-05-13T10:20:26;53070.00;;;-139.96;34.67
7906;BME280;13291;40.472;-3.878;2023-05-13T10:22:53;53042.00;;;-139.96;34.66
7906;BME280;13291;40.472;-3.878;2023-05-13T10:25:21;53044.00;;;-139.96;35.01
7906;BME280;13291;40.472;-3.878;2023-05-13T10:27:50;53080.00;;;-139.96;34.11
7906;BME280;13291;40.472;-3.878;2023-05-13T10:30:18;53046.00;;;-139.96;34.58
7906;BME280;13291;40.472;-3.878;2023-05-13T10:32:50;53070.00;;;-139.96;34.55
7906;BME280;13291;40.472;-3.878;2023-05-13T10:35:19;53026.00;;;-139.96;34.55
7906;BME280;13291;40.472;-3.878;2023-05-13T10:37:59;53070.00;;;-139.96;34.00
7906;BME280;13291;40.472;-3.878;2023-05-13T10:41:04;53034.00;;;-139.96;35.43
7906;BME280;13291;40.472;-3.878;2023-05-13T10:43:35;53040.00;;;-139.96;34.05
7906;BME280;13291;40.472;-3.878;2023-05-13T10:46:04;53042.00;;;-139.96;34.09
7906;BME280;13291;40.472;-3.878;2023-05-13T10:48:39;53058.00;;;-139.96;33.99
7906;BME280;13291;40.472;-3.878;2023-05-13T10:51:08;53022.00;;;-139.96;34.51
7906;BME280;13291;40.472;-3.878;2023-05-13T10:53:37;53060.00;;;-139.96;34.44
7906;BME280;13291;40.472;-3.878;2023-05-13T10:56:08;53016.00;;;-139.96;33.59
7906;BME280;13291;40.472;-3.878;2023-05-13T10:58:38;53074.00;;;-139.96;34.45
7906;BME280;13291;40.472;-3.878;2023-05-13T11:01:15;53044.00;;;-139.96;33.53
7906;BME280;13291;40.472;-3.878;2023-05-13T11:03:50;53050.00;;;-139.96;33.20
7906;BME280;13291;40.472;-3.878;2023-05-13T11:06:19;53068.00;;;-139.96;33.04
7906;BME280;13291;40.472;-3.878;2023-05-13T11:08:48;53046.00;;;-139.96;33.90
7906;BME280;13291;40.472;-3.878;2023-05-13T11:11:23;53042.00;;;-139.96;35.48
7906;BME280;13291;40.472;-3.878;2023-05-13T11:13:52;53048.00;;;-139.96;33.12
7906;BME280;13291;40.472;-3.878;2023-05-13T11:16:20;53056.00;;;-139.96;33.16
7906;BME280;13291;40.472;-3.878;2023-05-13T11:18:48;53022.00;;;-139.96;34.35
7906;BME280;13291;40.472;-3.878;2023-05-13T11:21:15;53024.00;;;-139.96;33.29
7906;BME280;13291;40.472;-3.878;2023-05-13T11:23:51;53046.00;;;-139.96;33.62
7906;BME280;13291;40.472;-3.878;2023-05-13T11:26:19;53036.00;;;-139.96;34.65
7906;BME280;13291;40.472;-3.878;2023-05-13T11:29:09;53046.00;;;-139.96;33.34
7906;BME280;13291;40.472;-3.878;2023-05-13T11:31:46;53046.00;;;-139.96;32.97
7906;BME280;13291;40.472;-3.878;2023-05-13T11:34:14;53046.00;;;-139.96;34.16
7906;BME280;13291;40.472;-3.878;2023-05-13T11:36:45;53038.00;;;-139.96;32.95
7906;BME280;13291;40.472;-3.878;2023-05-13T11:39:14;53020.00;;;-139.96;32.63
7906;BME280;13291;40.472;-3.878;2023-05-13T11:41:44;53016.00;;;-139.96;33.18
7906;BME280;13291;40.472;-3.878;2023-05-13T11:44:15;53062.00;;;-139.96;32.75
7906;BME280;13291;40.472;-3.878;2023-05-13T11:46:49;53040.00;;;-139.96;32.26
7906;BME280;13291;40.472;-3.878;2023-05-13T11:49:37;53030.00;;;-139.96;31.98
7906;BME280;13291;40.472;-3.878;2023-05-13T11:52:06;53038.00;;;-139.96;31.83
7906;BME280;13291;40.472;-3.878;2023-05-13T11:54:41;53048.00;;;-139.96;32.74
7906;BME280;13291;40.472;-3.878;2023-05-13T11:57:19;53001.97;;;-139.96;32.53
7906;BME280;13291;40.472;-3.878;2023-05-13T11:59:56;53042.00;;;-139.96;32.10
7906;BME280;13291;40.472;-3.878;2023-05-13T12:02:24;52989.97;;;-139.96;31.64
7906;BME280;13291;40.472;-3.878;2023-05-13T12:04:52;53056.00;;;-139.96;31.83
7906;BME280;13291;40.472;-3.878;2023-05-13T12:07:21;53036.00;;;-139.96;31.46
7906;BME280;13291;40.472;-3.878;2023-05-13T12:09:48;52991.97;;;-139.96;31.44
7906;BME280;13291;40.472;-3.878;2023-05-13T12:12:15;52995.97;;;-139.96;31.08
7906;BME280;13291;40.472;-3.878;2023-05-13T12:14:43;53040.00;;;-139.96;32.22
7906;BME280;13291;40.472;-3.878;2023-05-13T12:17:13;53032.00;;;-139.96;31.18
7906;BME280;13291;40.472;-3.878;2023-05-13T12:20:03;53026.00;;;-139.96;31.52
7906;BME280;13291;40.472;-3.878;2023-05-13T12:22:31;53030.00;;;-139.96;31.27
7906;BME280;13291;40.472;-3.878;2023-05-13T12:24:58;53030.00;;;-139.96;31.92
7906;BME280;13291;40.472;-3.878;2023-05-13T12:27:27;53018.00;;;-139.96;31.98
7906;BME280;13291;40.472;-3.878;2023-05-13T12:29:54;53012.00;;;-139.96;31.40
7906;BME280;13291;40.472;-3.878;2023-05-13T12:32:23;53022.00;;;-139.96;32.26
7906;BME280;13291;40.472;-3.878;2023-05-13T12:34:51;53038.00;;;-139.96;31.23
7906;BME280;13291;40.472;-3.878;2023-05-13T12:37:17;53030.00;;;-139.96;31.59
7906;BME280;13291;40.472;-3.878;2023-05-13T12:39:44;53044.00;;;-139.96;31.08
7906;BME280;13291;40.472;-3.878;2023-05-13T12:42:15;52987.97;;;-139.96;31.13
7906;BME280;13291;40.472;-3.878;2023-05-13T12:44:43;52997.97;;;-139.96;31.45
7906;BME280;13291;40.472;-3.878;2023-05-13T12:47:11;52989.97;;;-139.96;31.48